Time;durP1;ratioP1;P1;durP2;ratioP2;P2;SDS_P1;SDS_P2;PMS_P1;PMS_P2;Temp;Humidity;BMP_temperature;BMP_pressure;BME280_temperature;BME280_humidity;BME280_pressure;Samples;Min_cycle;Max_cycle;Signal;HPM_P1;HPM_P2
2022/11/16 00:01:28;;;;;;;11.97;9.60;;;11.10;99.90;;;;;;4943395;29;20178;-65
2022/11/16 00:03:58;;;;;;;11.30;9.20;;;11.00;99.90;;;;;;4951606;29;20206;-66
2022/11/16 00:06:24;;;;;;;10.63;9.53;;;11.00;99.90;;;;;;4951709;28;20414;-65
2022/11/16 00:11:39;;;;;;;11.27;8.43;;;11.00;99.90;;;;;;4951517;28;20205;-65
2022/11/16 00:14:05;;;;;;;11.37;10.20;;;11.00;99.90;;;;;;4951941;28;20568;-66
2022/11/16 00:16:31;;;;;;;9.70;8.70;;;11.00;1.00;;;;;;4951749;28;20947;-65
2022/11/16 00:19:00;;;;;;;13.80;10.50;;;11.00;1.00;;;;;;4952109;28;20557;-66
2022/11/16 00:21:26;;;;;;;17.80;10.40;;;11.00;1.00;;;;;;4950472;28;20414;-64
2022/11/16 00:23:52;;;;;;;12.63;9.83;;;11.00;1.00;;;;;;4951810;28;20531;-63
2022/11/16 00:26:18;;;;;;;12.20;8.53;;;11.00;1.00;;;;;;4951569;29;20417;-66
2022/11/16 00:28:45;;;;;;;9.83;8.83;;;11.00;1.00;;;;;;4951891;28;20406;-66
2022/11/16 00:31:11;;;;;;;10.23;8.80;;;11.00;1.00;;;;;;4950908;28;20422;-66
2022/11/16 00:33:37;;;;;;;20.73;11.63;;;10.90;99.90;;;;;;4951698;28;20461;-65
2022/11/16 00:36:08;;;;;;;12.30;8.40;;;10.90;1.00;;;;;;4951218;29;20178;-67
2022/11/16 00:38:34;;;;;;;12.40;10.10;;;11.00;1.00;;;;;;4951978;28;21174;-66
2022/11/16 00:41:00;;;;;;;12.37;9.20;;;11.10;1.00;;;;;;4950489;28;20453;-65
2022/11/16 00:43:26;;;;;;;15.90;9.37;;;11.10;1.00;;;;;;4951764;28;20274;-65
2022/11/16 00:45:52;;;;;;;14.17;8.67;;;11.00;1.00;;;;;;4951492;28;20406;-65
2022/11/16 00:48:18;;;;;;;14.70;8.97;;;11.00;1.00;;;;;;4951535;28;20253;-66
2022/11/16 00:50:44;;;;;;;15.53;11.10;;;11.00;1.00;;;;;;4950284;28;20772;-66
2022/11/16 00:53:17;;;;;;;12.97;8.83;;;11.10;1.00;;;;;;4951610;28;20426;-65
2022/11/16 00:55:43;;;;;;;9.30;8.37;;;11.10;1.00;;;;;;4951452;28;20500;-66
2022/11/16 00:58:10;;;;;;;15.90;9.80;;;11.10;1.00;;;;;;4951832;28;20420;-66
2022/11/16 01:00:35;;;;;;;10.00;9.07;;;11.20;1.00;;;;;;4943561;28;20513;-66
2022/11/16 01:03:01;;;;;;;14.00;9.37;;;11.10;99.90;;;;;;4932122;29;20864;-67
2022/11/16 01:05:27;;;;;;;10.57;8.47;;;11.10;99.90;;;;;;4932146;29;20183;-65
2022/11/16 01:07:53;;;;;;;10.70;8.97;;;11.20;99.90;;;;;;4932072;29;20257;-65
2022/11/16 01:10:21;;;;;;;10.73;8.27;;;11.10;99.90;;;;;;4931855;29;20903;-64
2022/11/16 01:12:49;;;;;;;10.03;8.47;;;11.00;1.00;;;;;;4931785;29;20195;-65
2022/11/16 01:15:16;;;;;;;10.30;9.00;;;11.10;1.00;;;;;;4931854;29;20477;-66
2022/11/16 01:17:42;;;;;;;9.43;8.50;;;11.20;1.00;;;;;;4932606;29;20493;-66
2022/11/16 01:20:12;;;;;;;12.07;10.50;;;11.20;1.00;;;;;;4932413;29;20423;-66
2022/11/16 01:22:39;;;;;;;10.43;9.43;;;11.20;1.00;;;;;;4930987;29;20971;-66
2022/11/16 01:25:05;;;;;;;10.27;8.80;;;11.20;1.00;;;;;;4934274;29;20410;-65
2022/11/16 01:27:31;;;;;;;12.43;8.80;;;11.10;81.50;;;;;;4935775;29;21136;-66
2022/11/16 01:29:57;;;;;;;16.90;10.63;;;11.10;99.90;;;;;;4935948;29;20907;-66
2022/11/16 01:34:51;;;;;;;11.80;9.87;;;11.00;99.90;;;;;;4934405;29;20203;-63
2022/11/16 01:37:18;;;;;;;10.87;9.40;;;11.10;99.90;;;;;;4935574;29;20403;-63
2022/11/16 01:39:43;;;;;;;10.67;9.37;;;11.10;99.90;;;;;;4935890;29;20163;-63
2022/11/16 01:42:21;;;;;;;10.00;8.43;;;11.10;99.90;;;;;;4935194;29;20395;-63
2022/11/16 01:44:47;;;;;;;9.30;7.93;;;11.00;99.90;;;;;;4916539;29;20171;-63
2022/11/16 01:47:14;;;;;;;9.40;8.30;;;11.00;99.90;;;;;;4916378;29;20404;-62
2022/11/16 01:49:47;;;;;;;13.20;9.80;;;11.00;99.90;;;;;;4916283;29;20164;-63
2022/11/16 01:52:18;;;;;;;11.30;9.97;;;11.00;1.00;;;;;;4915216;29;20411;-63
2022/11/16 01:54:46;;;;;;;10.20;8.70;;;11.10;1.00;;;;;;4916169;29;20427;-64
2022/11/16 01:57:20;;;;;;;13.20;9.57;;;11.00;1.00;;;;;;4916051;29;20495;-63
2022/11/16 01:59:48;;;;;;;13.43;10.30;;;10.90;1.00;;;;;;4915955;29;20408;-64
2022/11/16 02:02:14;;;;;;;11.83;10.77;;;10.90;1.00;;;;;;4897693;29;20420;-64
2022/11/16 02:04:40;;;;;;;10.17;9.20;;;10.70;1.00;;;;;;4897236;29;20527;-64
2022/11/16 02:07:30;;;;;;;10.40;9.00;;;10.70;1.00;;;;;;4896153;29;20917;-64
2022/11/16 02:10:03;;;;;;;11.87;10.17;;;10.70;1.00;;;;;;4897440;29;20206;-64
2022/11/16 02:12:50;;;;;;;11.03;9.20;;;10.70;1.00;;;;;;4896720;29;20436;-64
2022/11/16 02:15:21;;;;;;;10.60;9.07;;;10.60;1.00;;;;;;4897080;29;20416;-63
2022/11/16 02:18:09;;;;;;;10.90;9.27;;;10.60;1.00;;;;;;4897341;29;20524;-63
2022/11/16 02:20:53;;;;;;;10.00;8.67;;;10.70;1.00;;;;;;4896793;29;20525;-63
2022/11/16 02:23:21;;;;;;;12.13;9.70;;;10.80;1.00;;;;;;4896805;29;20555;-63
2022/11/16 02:25:56;;;;;;;10.50;8.53;;;10.70;1.00;;;;;;4897097;29;20415;-63
2022/11/16 02:28:51;;;;;;;18.00;9.57;;;10.70;1.00;;;;;;4897228;29;20483;-63
2022/11/16 02:31:28;;;;;;;10.43;9.00;;;10.50;1.00;;;;;;4894999;29;20500;-63
2022/11/16 02:33:56;;;;;;;10.97;9.87;;;10.70;1.00;;;;;;4896552;29;20464;-63
2022/11/16 02:36:23;;;;;;;11.63;10.43;;;10.60;1.00;;;;;;4896713;29;21064;-63
2022/11/16 02:38:56;;;;;;;11.77;8.10;;;10.70;1.00;;;;;;4896971;29;20420;-63
2022/11/16 02:41:25;;;;;;;10.43;9.10;;;10.60;1.00;;;;;;4896545;29;20408;-63
2022/11/16 02:44:04;;;;;;;15.30;9.73;;;10.70;1.00;;;;;;4896398;29;20607;-63
2022/11/16 02:46:35;;;;;;;12.03;9.40;;;10.80;1.00;;;;;;4896239;29;20411;-63
2022/11/16 02:49:04;;;;;;;14.57;9.20;;;10.90;1.00;;;;;;4896395;29;20412;-63
2022/11/16 02:51:33;;;;;;;18.40;10.83;;;10.90;1.00;;;;;;4895770;29;20409;-63
2022/11/16 02:54:17;;;;;;;13.57;10.30;;;11.00;1.00;;;;;;4896333;29;20536;-63
2022/11/16 02:56:47;;;;;;;15.30;9.60;;;11.00;1.00;;;;;;4896441;29;20401;-63
2022/11/16 02:59:13;;;;;;;12.63;9.70;;;11.00;1.00;;;;;;4896497;29;20421;-63
2022/11/16 03:01:45;;;;;;;14.43;9.77;;;11.00;1.00;;;;;;4896133;29;20472;-63
2022/11/16 03:04:20;;;;;;;12.13;10.43;;;10.90;1.00;;;;;;4896156;29;20472;-63
2022/11/16 03:06:49;;;;;;;12.53;9.20;;;10.70;1.00;;;;;;4896061;29;20516;-63
2022/11/16 03:09:25;;;;;;;10.93;9.73;;;10.50;1.00;;;;;;4896025;29;20417;-63
2022/11/16 03:11:58;;;;;;;10.30;9.20;;;10.40;1.00;;;;;;4895471;29;20512;-63
2022/11/16 03:14:34;;;;;;;16.13;10.17;;;10.30;1.00;;;;;;4896006;29;20443;-63
2022/11/16 03:17:02;;;;;;;14.30;10.23;;;10.30;1.00;;;;;;4896054;29;20779;-63
2022/11/16 03:19:35;;;;;;;13.10;10.67;;;10.40;1.00;;;;;;4895980;29;20846;-63
2022/11/16 03:22:15;;;;;;;17.53;11.10;;;10.40;1.00;;;;;;4895364;29;20828;-63
2022/11/16 03:24:41;;;;;;;16.63;11.13;;;10.60;1.00;;;;;;4895621;29;20539;-63
2022/11/16 03:27:25;;;;;;;19.40;11.97;;;10.50;1.00;;;;;;4895504;29;20495;-63
2022/11/16 03:30:05;;;;;;;51.40;13.77;;;10.50;1.00;;;;;;4895456;29;20183;-63
2022/11/16 03:32:53;;;;;;;13.83;10.60;;;10.60;1.00;;;;;;4894858;29;20412;-63
2022/11/16 03:35:24;;;;;;;14.10;11.73;;;10.60;1.00;;;;;;4895927;29;20461;-63
2022/11/16 03:37:52;;;;;;;13.07;11.80;;;10.70;1.00;;;;;;4895376;29;20510;-63
2022/11/16 03:40:19;;;;;;;16.70;11.60;;;10.70;1.00;;;;;;4895383;29;20439;-63
2022/11/16 03:42:45;;;;;;;18.97;13.40;;;10.70;1.00;;;;;;4894908;29;20470;-63
2022/11/16 03:45:12;;;;;;;13.83;12.40;;;10.80;1.00;;;;;;4895176;29;20492;-63
2022/11/16 03:47:40;;;;;;;14.07;11.80;;;10.70;1.00;;;;;;4894876;29;20417;-63
2022/11/16 03:50:06;;;;;;;19.20;12.83;;;10.60;1.00;;;;;;4895222;29;20500;-64
2022/11/16 03:52:33;;;;;;;15.53;12.83;;;10.70;1.00;;;;;;4895051;29;20432;-64
2022/11/16 03:54:58;;;;;;;13.20;11.90;;;10.70;1.00;;;;;;4895394;29;20413;-63
2022/11/16 03:57:24;;;;;;;23.30;15.00;;;10.70;1.00;;;;;;4894971;29;20950;-63
2022/11/16 03:59:50;;;;;;;14.43;12.20;;;10.70;1.00;;;;;;4896144;29;20669;-63
2022/11/16 04:02:15;;;;;;;14.13;12.50;;;10.70;1.00;;;;;;4913876;29;20200;-64
2022/11/16 04:24:26;;;;;;;14.30;12.50;;;10.50;1.00;;;;;;4913789;29;20530;-63
2022/11/16 04:29:50;;;;;;;14.13;12.63;;;10.30;1.00;;;;;;4914122;29;20407;-63
2022/11/16 04:37:53;;;;;;;15.60;12.50;;;10.00;1.00;;;;;;4914101;29;20766;-63
2022/11/16 04:40:22;;;;;;;17.33;12.70;;;9.90;1.00;;;;;;4913607;29;20419;-63
2022/11/16 04:43:02;;;;;;;17.77;13.13;;;10.10;1.00;;;;;;4913097;29;20463;-63
2022/11/16 04:48:14;;;;;;;15.00;12.27;;;10.40;1.00;;;;;;4914109;29;20403;-63
2022/11/16 04:50:42;;;;;;;16.57;12.10;;;10.50;1.00;;;;;;4913142;29;20760;-64
2022/11/16 04:53:08;;;;;;;22.90;14.20;;;10.60;1.00;;;;;;4913619;29;20466;-63
2022/11/16 04:55:34;;;;;;;17.80;12.60;;;10.60;1.00;;;;;;4913655;29;20567;-63
2022/11/16 04:58:00;;;;;;;15.30;13.60;;;10.70;1.00;;;;;;4913505;29;20419;-64
2022/11/16 05:00:27;;;;;;;19.80;15.70;;;10.80;1.00;;;;;;4915816;29;20499;-63
2022/11/16 05:02:52;;;;;;;16.53;14.83;;;10.70;1.00;;;;;;4917052;29;20462;-63
2022/11/16 05:05:18;;;;;;;16.10;13.90;;;10.70;1.00;;;;;;4917368;29;20423;-63
2022/11/16 05:07:45;;;;;;;16.43;14.73;;;10.70;1.00;;;;;;4916963;29;20190;-64
2022/11/16 05:10:11;;;;;;;14.83;13.40;;;10.60;1.00;;;;;;4917794;29;20495;-64
2022/11/16 05:12:37;;;;;;;14.80;13.23;;;10.60;1.00;;;;;;4917219;29;20411;-63
2022/11/16 05:15:05;;;;;;;19.03;14.30;;;10.60;1.00;;;;;;4917347;29;20909;-64
2022/11/16 05:17:30;;;;;;;23.93;12.10;;;10.60;1.00;;;;;;4918025;29;20874;-64
2022/11/16 05:22:40;;;;;;;15.60;12.37;;;10.60;1.00;;;;;;4917205;29;20354;-64
2022/11/16 05:25:09;;;;;;;15.07;12.70;;;10.50;1.00;;;;;;4917552;29;20506;-65
2022/11/16 05:27:36;;;;;;;14.13;12.73;;;10.50;1.00;;;;;;4916861;29;20342;-64
2022/11/16 05:30:05;;;;;;;14.30;12.83;;;10.40;1.00;;;;;;4916961;29;20893;-64
2022/11/16 05:32:30;;;;;;;15.50;13.37;;;10.20;1.00;;;;;;4916527;29;20427;-64
2022/11/16 05:34:56;;;;;;;38.83;15.10;;;10.40;1.00;;;;;;4917034;29;20416;-65
2022/11/16 05:37:25;;;;;;;21.53;13.50;;;10.40;1.00;;;;;;4916741;29;20218;-65
2022/11/16 05:39:51;;;;;;;16.47;13.37;;;10.30;1.00;;;;;;4917030;29;20175;-65
2022/11/16 05:42:17;;;;;;;15.53;13.90;;;10.40;1.00;;;;;;4916421;29;20500;-64
2022/11/16 05:44:43;;;;;;;14.27;12.80;;;10.50;1.00;;;;;;4916656;29;20847;-66
2022/11/16 05:47:08;;;;;;;16.17;14.47;;;10.50;1.00;;;;;;4916409;29;20172;-65
2022/11/16 05:49:34;;;;;;;15.90;12.87;;;10.60;1.00;;;;;;4916701;29;20172;-65
2022/11/16 05:52:00;;;;;;;14.63;13.23;;;10.40;1.00;;;;;;4916095;29;20629;-65
2022/11/16 05:54:34;;;;;;;16.10;13.27;;;10.60;1.00;;;;;;4916452;29;20294;-64
2022/11/16 05:56:59;;;;;;;15.13;13.13;;;10.60;1.00;;;;;;4916633;29;20190;-65
2022/11/16 05:59:26;;;;;;;21.90;14.43;;;10.70;1.00;;;;;;4916638;29;20420;-65
2022/11/16 06:01:52;;;;;;;26.27;13.43;;;10.70;1.00;;;;;;4915989;29;20203;-64
2022/11/16 06:04:18;;;;;;;15.60;12.60;;;10.80;1.00;;;;;;4916221;29;20463;-64
2022/11/16 06:06:44;;;;;;;15.33;12.83;;;10.80;1.00;;;;;;4916150;29;20178;-64
2022/11/16 06:09:11;;;;;;;14.87;11.33;;;10.80;1.00;;;;;;4916391;29;20179;-64
2022/11/16 06:11:37;;;;;;;18.17;13.10;;;10.90;1.00;;;;;;4915347;29;20178;-64
2022/11/16 06:14:03;;;;;;;19.10;10.87;;;10.90;1.00;;;;;;4915979;29;20436;-66
2022/11/16 06:16:30;;;;;;;30.00;14.23;;;10.90;1.00;;;;;;4915917;29;20183;-63
2022/11/16 06:18:55;;;;;;;20.10;12.40;;;10.80;1.00;;;;;;4915643;29;20420;-66
2022/11/16 06:21:21;;;;;;;20.33;12.10;;;10.90;1.00;;;;;;4914435;29;20905;-64
2022/11/16 06:23:47;;;;;;;14.60;12.23;;;10.90;1.00;;;;;;4915224;29;20211;-63
2022/11/16 06:26:12;;;;;;;18.20;10.90;;;10.90;1.00;;;;;;4915314;29;20238;-63
2022/11/16 06:28:38;;;;;;;25.37;12.23;;;10.90;1.00;;;;;;4915570;29;20199;-64
2022/11/16 06:31:05;;;;;;;21.10;10.93;;;10.90;1.00;;;;;;4914400;29;20201;-64
2022/11/16 06:33:30;;;;;;;23.20;11.23;;;10.90;1.00;;;;;;4914955;29;20459;-64
2022/11/16 06:35:56;;;;;;;21.70;10.60;;;10.90;1.00;;;;;;4914720;29;21009;-64
2022/11/16 06:38:22;;;;;;;19.10;11.50;;;10.90;1.00;;;;;;4915390;29;20180;-64
2022/11/16 06:40:56;;;;;;;24.20;10.47;;;10.90;1.00;;;;;;4914317;29;20184;-64
2022/11/16 06:43:23;;;;;;;17.10;11.27;;;10.90;1.00;;;;;;4915233;29;20877;-64
2022/11/16 06:45:50;;;;;;;18.53;11.87;;;10.90;1.00;;;;;;4929602;29;20419;-64
2022/11/16 06:48:17;;;;;;;17.60;11.90;;;10.90;1.00;;;;;;4913516;29;20424;-64
2022/11/16 06:50:43;;;;;;;16.60;12.13;;;10.80;1.00;;;;;;4905897;29;20689;-64
2022/11/16 06:53:08;;;;;;;17.90;13.40;;;10.80;1.00;;;;;;4904079;29;20952;-64
2022/11/16 06:55:34;;;;;;;25.80;11.40;;;10.90;1.00;;;;;;4913161;29;20179;-64
2022/11/16 06:58:00;;;;;;;36.43;14.67;;;10.90;1.00;;;;;;4914636;29;20172;-64
2022/11/16 07:00:26;;;;;;;22.63;12.20;;;10.90;1.00;;;;;;4914825;29;20527;-64
2022/11/16 07:02:52;;;;;;;20.57;10.50;;;10.90;1.00;;;;;;4915747;29;20379;-64
2022/11/16 07:05:18;;;;;;;16.00;12.10;;;10.90;1.00;;;;;;4903719;29;20507;-64
2022/11/16 07:07:44;;;;;;;22.13;11.63;;;10.90;1.00;;;;;;4895955;29;20183;-64
2022/11/16 07:10:10;;;;;;;16.53;11.93;;;10.90;1.00;;;;;;4897282;29;20206;-64
2022/11/16 07:12:35;;;;;;;21.47;12.57;;;10.90;1.00;;;;;;4913900;29;20231;-64
2022/11/16 07:15:01;;;;;;;21.50;12.07;;;10.90;1.00;;;;;;4913236;29;20172;-64
2022/11/16 07:17:27;;;;;;;28.30;12.97;;;10.80;1.00;;;;;;4910162;29;20212;-65
2022/11/16 07:19:52;;;;;;;17.70;13.77;;;10.80;1.00;;;;;;4895961;29;20168;-65
2022/11/16 07:22:18;;;;;;;26.07;13.10;;;10.80;1.00;;;;;;4904748;29;20262;-63
2022/11/16 07:24:44;;;;;;;44.10;15.50;;;10.80;1.00;;;;;;4912701;29;20203;-63
2022/11/16 07:27:09;;;;;;;33.27;14.37;;;10.80;1.00;;;;;;4913459;29;20258;-66
2022/11/16 07:29:35;;;;;;;30.63;14.43;;;10.90;1.00;;;;;;4906433;29;20188;-63
2022/11/16 07:32:01;;;;;;;24.57;13.43;;;11.00;1.00;;;;;;4913100;29;20191;-63
2022/11/16 07:34:26;;;;;;;16.07;12.00;;;11.00;1.00;;;;;;4914335;29;20215;-66
2022/11/16 07:36:52;;;;;;;15.70;11.10;;;11.10;1.00;;;;;;4905244;29;20262;-64
2022/11/16 07:39:18;;;;;;;18.90;12.47;;;11.10;1.00;;;;;;4915496;29;20752;-62
2022/11/16 07:41:44;;;;;;;16.60;11.37;;;11.10;1.00;;;;;;4908764;29;20553;-63
2022/11/16 07:44:09;;;;;;;18.90;13.27;;;11.00;1.00;;;;;;4917650;29;20239;-62
2022/11/16 07:46:35;;;;;;;23.60;12.80;;;11.00;1.00;;;;;;4909394;29;20451;-63
2022/11/16 07:49:01;;;;;;;18.33;12.63;;;11.10;1.00;;;;;;4918211;29;20582;-61
2022/11/16 07:51:27;;;;;;;32.13;13.33;;;11.10;1.00;;;;;;4910022;29;20181;-62
2022/11/16 07:53:54;;;;;;;13.67;12.23;;;11.10;1.00;;;;;;4918667;29;20225;-63
2022/11/16 07:56:20;;;;;;;11.60;10.40;;;11.10;1.00;;;;;;4914252;29;20236;-63
2022/11/16 07:58:46;;;;;;;14.23;11.47;;;11.20;1.00;;;;;;4921790;29;20412;-63
2022/11/16 08:01:13;;;;;;;14.70;12.60;;;11.20;1.00;;;;;;4912011;29;20538;-61
2022/11/16 08:03:41;;;;;;;13.07;11.67;;;11.30;1.00;;;;;;4905141;29;20204;-63
2022/11/16 08:06:19;;;;;;;12.80;10.93;;;11.30;1.00;;;;;;4899706;29;20443;-61
2022/11/16 08:08:45;;;;;;;16.17;11.70;;;11.30;1.00;;;;;;4914176;29;20805;-63
2022/11/16 08:11:11;;;;;;;21.13;11.43;;;11.30;1.00;;;;;;4906374;29;20519;-63
2022/11/16 08:13:39;;;;;;;14.53;11.30;;;11.30;1.00;;;;;;4912385;29;20202;-63
2022/11/16 08:16:09;;;;;;;14.60;12.90;;;11.30;1.00;;;;;;4913270;29;20464;-63
2022/11/16 08:18:36;;;;;;;16.47;11.20;;;11.20;1.00;;;;;;4904518;29;20427;-62
2022/11/16 08:21:03;;;;;;;14.23;12.20;;;11.30;1.00;;;;;;4893702;29;20423;-62
2022/11/16 08:23:29;;;;;;;32.60;11.70;;;11.40;1.00;;;;;;4894580;29;20464;-64
2022/11/16 08:26:03;;;;;;;25.93;12.10;;;11.50;1.00;;;;;;4898887;29;20432;-63
2022/11/16 08:28:29;;;;;;;25.83;14.40;;;11.50;1.00;;;;;;4908391;29;20510;-65
2022/11/16 08:30:56;;;;;;;11.07;9.27;;;11.50;1.00;;;;;;4910721;29;20857;-66
2022/11/16 08:33:23;;;;;;;17.03;11.17;;;11.70;1.00;;;;;;4912615;29;20234;-66
2022/11/16 08:35:53;;;;;;;18.97;10.47;;;11.60;1.00;;;;;;4912903;29;20431;-66
2022/11/16 08:38:19;;;;;;;17.07;11.13;;;11.60;1.00;;;;;;4906813;29;20413;-65
2022/11/16 08:40:45;;;;;;;12.90;10.67;;;11.60;1.00;;;;;;4894128;29;20408;-66
2022/11/16 08:43:11;;;;;;;12.77;9.80;;;11.70;1.00;;;;;;4913079;29;20487;-66
2022/11/16 08:45:37;;;;;;;14.20;10.63;;;11.60;1.00;;;;;;4914307;29;20431;-67
2022/11/16 08:48:04;;;;;;;15.10;10.73;;;11.70;1.00;;;;;;4913942;29;20251;-66
2022/11/16 08:50:30;;;;;;;14.47;11.17;;;11.70;1.00;;;;;;4913738;29;20475;-66
2022/11/16 08:52:56;;;;;;;14.40;10.00;;;11.80;1.00;;;;;;4912464;29;20471;-66
2022/11/16 08:55:23;;;;;;;15.00;9.70;;;11.90;1.00;;;;;;4913465;29;20749;-66
2022/11/16 08:57:48;;;;;;;38.60;13.30;;;12.40;1.00;;;;;;4913407;29;20822;-65
2022/11/16 09:00:14;;;;;;;12.10;9.67;;;13.20;1.00;;;;;;4908773;29;20523;-66
2022/11/16 09:02:40;;;;;;;9.20;8.20;;;14.50;99.90;;;;;;4893845;29;20207;-65
2022/11/16 09:05:10;;;;;;;11.10;9.03;;;14.70;70.80;;;;;;4894363;29;20413;-66
2022/11/16 09:07:37;;;;;;;17.57;8.90;;;15.20;99.90;;;;;;4894020;29;20188;-68
2022/11/16 09:10:03;;;;;;;11.77;8.87;;;15.60;1.00;;;;;;4894293;29;20400;-70
2022/11/16 09:12:29;;;;;;;14.30;9.47;;;15.60;99.90;;;;;;4903435;29;20529;-67
2022/11/16 09:14:54;;;;;;;12.43;7.50;;;16.00;99.90;;;;;;4912327;29;20894;-66
2022/11/16 09:17:20;;;;;;;8.20;7.40;;;16.30;99.90;;;;;;4904197;29;20179;-67
2022/11/16 09:19:46;;;;;;;12.87;8.37;;;16.60;1.00;;;;;;4909992;29;20239;-65
2022/11/16 09:22:11;;;;;;;12.83;7.10;;;16.80;1.00;;;;;;4907001;29;20191;-66
2022/11/16 09:24:37;;;;;;;13.87;7.87;;;17.00;1.00;;;;;;4909268;29;20219;-65
2022/11/16 09:27:03;;;;;;;21.33;8.80;;;17.10;1.00;;;;;;4905232;29;20195;-65
2022/11/16 09:29:28;;;;;;;12.60;8.87;;;17.10;1.00;;;;;;4910874;29;20187;-67
2022/11/16 09:31:54;;;;;;;10.80;9.17;;;17.20;1.00;;;;;;4908564;29;20191;-64
2022/11/16 09:34:20;;;;;;;9.30;8.47;;;17.00;1.00;;;;;;4913085;29;20207;-66
2022/11/16 09:36:46;;;;;;;10.53;9.50;;;16.70;1.00;;;;;;4911490;29;20443;-66
2022/11/16 09:39:12;;;;;;;9.93;9.13;;;16.20;1.00;;;;;;4913144;29;20187;-66
2022/11/16 09:41:46;;;;;;;10.67;9.57;;;15.90;1.00;;;;;;4911404;29;20200;-66
2022/11/16 09:44:38;;;;;;;11.30;9.77;;;16.20;1.00;;;;;;4906430;29;20471;-66
2022/11/16 09:47:12;;;;;;;25.60;10.10;;;16.10;1.00;;;;;;4916102;29;20495;-65
2022/11/16 09:49:44;;;;;;;22.30;9.90;;;16.00;1.00;;;;;;4912498;29;21043;-65
2022/11/16 09:52:38;;;;;;;12.20;8.30;;;16.10;1.00;;;;;;4910771;29;20404;-65
2022/11/16 09:55:22;;;;;;;30.00;10.93;;;16.40;1.00;;;;;;4914867;29;20444;-65
2022/11/16 09:57:52;;;;;;;22.17;10.10;;;16.40;1.00;;;;;;4900140;29;20498;-65
2022/11/16 10:00:23;;;;;;;41.77;12.83;;;16.20;1.00;;;;;;4912736;29;20464;-65
2022/11/16 10:03:01;;;;;;;10.37;8.00;;;15.90;1.00;;;;;;4909273;29;20483;-65
2022/11/16 10:05:28;;;;;;;18.30;8.33;;;15.50;1.00;;;;;;4899085;29;20416;-66
2022/11/16 10:08:11;;;;;;;56.77;11.60;;;15.40;1.00;;;;;;4916171;29;20977;-66
2022/11/16 10:11:12;;;;;;;51.33;13.57;;;15.30;1.00;;;;;;4914381;29;20443;-65
2022/11/16 10:13:47;;;;;;;12.67;7.10;;;15.30;1.00;;;;;;4910052;29;20456;-67
2022/11/16 10:16:17;;;;;;;88.47;15.37;;;15.30;1.00;;;;;;4915735;29;20415;-64
2022/11/16 10:18:54;;;;;;;23.23;7.70;;;15.20;1.00;;;;;;4915957;29;20470;-66
2022/11/16 10:21:33;;;;;;;18.43;6.80;;;15.20;1.00;;;;;;4914626;29;20435;-65
2022/11/16 10:24:05;;;;;;;26.83;9.87;;;15.20;1.00;;;;;;4915802;29;20471;-67
2022/11/16 10:26:45;;;;;;;21.60;8.90;;;15.10;1.00;;;;;;4915828;29;20447;-65
2022/11/16 10:29:23;;;;;;;16.73;7.07;;;14.90;1.00;;;;;;4916272;29;20479;-66
2022/11/16 10:32:07;;;;;;;8.10;5.67;;;14.90;1.00;;;;;;4915128;29;20427;-66
2022/11/16 10:34:49;;;;;;;29.17;7.20;;;14.80;1.00;;;;;;4915404;29;20585;-66
2022/11/16 10:37:15;;;;;;;7.00;4.83;;;14.60;26.50;;;;;;4915419;29;20427;-66
2022/11/16 10:39:41;;;;;;;12.80;5.40;;;14.70;99.50;;;;;;4915451;29;20415;-66
2022/11/16 10:42:18;;;;;;;30.97;7.10;;;14.90;31.40;;;;;;4915032;29;20510;-65
2022/11/16 10:44:50;;;;;;;33.97;7.57;;;14.90;1.00;;;;;;4915626;29;20574;-66
2022/11/16 10:47:31;;;;;;;19.50;4.83;;;14.90;1.00;;;;;;4916000;29;20407;-67
2022/11/16 10:50:05;;;;;;;14.17;5.80;;;14.90;1.00;;;;;;4915684;29;20400;-67
2022/11/16 10:52:30;;;;;;;7.40;4.27;;;14.80;1.00;;;;;;4914488;29;20419;-66
2022/11/16 10:54:56;;;;;;;7.90;4.20;;;14.70;1.00;;;;;;4915166;29;20412;-65
2022/11/16 10:57:23;;;;;;;18.67;6.77;;;14.50;1.00;;;;;;4914013;29;20243;-65
2022/11/16 10:59:54;;;;;;;20.07;6.80;;;14.50;1.00;;;;;;4914235;29;20322;-65
2022/11/16 11:02:36;;;;;;;13.33;5.40;;;14.40;12.80;;;;;;4895749;29;20513;-67
2022/11/16 11:05:16;;;;;;;41.50;5.70;;;14.40;18.90;;;;;;4896230;29;20522;-67
2022/11/16 11:08:09;;;;;;;51.60;7.80;;;14.40;33.40;;;;;;4896414;29;20420;-67
2022/11/16 11:10:40;;;;;;;25.83;5.33;;;14.50;17.30;;;;;;4891599;29;20432;-68
2022/11/16 11:13:26;;;;;;;6.83;4.03;;;14.60;30.00;;;;;;4896206;29;20432;-67
2022/11/16 11:16:14;;;;;;;19.90;4.53;;;14.60;33.10;;;;;;4895782;29;20786;-66
2022/11/16 11:18:40;;;;;;;11.57;3.90;;;14.50;1.00;;;;;;4896018;29;20417;-65
2022/11/16 11:21:22;;;;;;;12.47;3.30;;;14.50;1.00;;;;;;4894936;29;20423;-66
2022/11/16 11:23:55;;;;;;;14.63;4.40;;;14.50;1.00;;;;;;4895879;29;20300;-66
2022/11/16 11:26:31;;;;;;;23.07;5.23;;;14.50;1.00;;;;;;4895535;29;20977;-66
2022/11/16 11:29:00;;;;;;;38.47;6.70;;;14.40;1.00;;;;;;4895969;29;20495;-68
2022/11/16 11:31:34;;;;;;;89.10;11.50;;;14.40;1.00;;;;;;4895093;29;20594;-65
2022/11/16 11:34:09;;;;;;;33.60;5.80;;;14.40;1.00;;;;;;4895600;29;20480;-65
2022/11/16 11:36:40;;;;;;;39.00;7.07;;;14.40;1.00;;;;;;4895181;29;21099;-67
2022/11/16 11:39:26;;;;;;;23.40;5.00;;;14.40;1.00;;;;;;4895794;29;20500;-66
2022/11/16 11:42:12;;;;;;;19.90;3.90;;;14.40;1.00;;;;;;4894628;29;20444;-67
2022/11/16 11:44:50;;;;;;;62.90;10.00;;;14.40;1.00;;;;;;4895571;29;20492;-67
2022/11/16 11:47:43;;;;;;;54.57;8.63;;;14.40;1.00;;;;;;4894933;29;20445;-67
2022/11/16 11:50:35;;;;;;;66.23;9.67;;;14.30;1.00;;;;;;4895409;29;20385;-65
2022/11/16 11:53:04;;;;;;;88.80;12.60;;;14.40;1.00;;;;;;4895123;29;20425;-67
2022/11/16 11:55:30;;;;;;;56.03;8.10;;;14.40;1.00;;;;;;4895332;29;20404;-67
2022/11/16 11:57:57;;;;;;;52.27;10.77;;;14.40;1.00;;;;;;4895560;29;20456;-67
2022/11/16 12:00:24;;;;;;;40.13;6.63;;;14.50;1.00;;;;;;4900543;29;20194;-67
2022/11/16 12:03:16;;;;;;;10.13;3.90;;;14.60;1.00;;;;;;4913364;29;20996;-67
2022/11/16 12:06:09;;;;;;;16.80;5.37;;;14.60;1.00;;;;;;4914066;29;20395;-67
2022/11/16 12:08:59;;;;;;;4.77;3.33;;;14.60;1.00;;;;;;4913969;29;20731;-66
2022/11/16 12:11:41;;;;;;;7.83;3.37;;;14.60;1.00;;;;;;4913524;29;20743;-66
2022/11/16 12:14:25;;;;;;;19.40;4.20;;;14.70;1.00;;;;;;4913831;29;20511;-65
2022/11/16 12:17:18;;;;;;;10.03;3.80;;;14.80;1.00;;;;;;4913903;29;20453;-66
2022/11/16 12:20:10;;;;;;;8.77;2.97;;;14.90;1.00;;;;;;4913843;29;20400;-66
2022/11/16 12:23:01;;;;;;;6.20;2.40;;;15.10;1.00;;;;;;4904743;29;20443;-66
2022/11/16 12:25:45;;;;;;;12.07;2.83;;;14.90;1.00;;;;;;4913535;29;20515;-66
2022/11/16 12:28:10;;;;;;;26.20;5.20;;;14.70;1.00;;;;;;4913774;29;20448;-66
2022/11/16 12:30:47;;;;;;;19.20;3.57;;;14.80;1.00;;;;;;4912893;29;21011;-66
2022/11/16 12:33:31;;;;;;;15.63;3.60;;;14.70;1.00;;;;;;4910144;29;20233;-66
2022/11/16 12:36:55;;;;;;;12.17;4.47;;;14.70;1.00;;;;;;4894729;29;20448;-66
2022/11/16 12:39:38;;;;;;;15.07;4.70;;;14.60;1.00;;;;;;4872796;29;20444;-66
2022/11/16 12:42:11;;;;;;;8.30;2.60;;;14.50;1.00;;;;;;4893297;29;20424;-66
2022/11/16 12:45:22;;;;;;;5.87;2.50;;;14.40;1.00;;;;;;4895004;29;20802;-66
2022/11/16 12:48:23;;;;;;;4.73;3.00;;;14.50;1.00;;;;;;4864850;29;20424;-66
2022/11/16 12:51:15;;;;;;;5.03;1.90;;;14.40;1.00;;;;;;4879106;29;20452;-66
2022/11/16 12:54:01;;;;;;;10.37;3.73;;;14.40;1.00;;;;;;4894815;29;20464;-66
2022/11/16 12:56:49;;;;;;;6.47;2.73;;;14.40;1.00;;;;;;4894907;29;20902;-66
2022/11/16 12:59:46;;;;;;;7.40;3.80;;;14.40;1.00;;;;;;4894658;29;20481;-66
2022/11/16 13:02:53;;;;;;;10.23;2.20;;;14.40;1.00;;;;;;4912412;29;20781;-66
2022/11/16 13:05:30;;;;;;;18.40;5.10;;;14.30;1.00;;;;;;4909203;29;20435;-66
2022/11/16 13:08:10;;;;;;;19.07;2.90;;;14.20;1.00;;;;;;4898896;29;20422;-66
2022/11/16 13:10:45;;;;;;;11.03;2.23;;;14.20;1.00;;;;;;4912744;29;20430;-65
2022/11/16 13:13:22;;;;;;;16.80;3.17;;;14.20;1.00;;;;;;4907244;29;20440;-65
2022/11/16 13:15:48;;;;;;;15.90;2.93;;;14.10;1.00;;;;;;4913064;29;20424;-66
2022/11/16 13:18:18;;;;;;;9.73;2.60;;;14.20;1.00;;;;;;4913479;29;20439;-66
2022/11/16 13:20:57;;;;;;;13.77;2.90;;;14.30;1.00;;;;;;4912412;29;20444;-67
2022/11/16 13:23:43;;;;;;;21.00;3.50;;;14.40;1.00;;;;;;4916512;29;20463;-66
2022/11/16 13:26:42;;;;;;;8.07;2.50;;;14.40;1.00;;;;;;4912198;29;20435;-66
2022/11/16 13:29:29;;;;;;;22.83;3.33;;;14.40;1.00;;;;;;4917032;29;20408;-67
2022/11/16 13:32:20;;;;;;;7.50;1.83;;;14.30;1.00;;;;;;4916312;29;20439;-67
2022/11/16 13:34:47;;;;;;;4.50;1.73;;;14.50;1.00;;;;;;4888022;29;20460;-67
2022/11/16 13:37:38;;;;;;;5.07;2.27;;;14.70;1.00;;;;;;4916017;29;20407;-68
2022/11/16 13:40:03;;;;;;;16.30;2.20;;;14.80;1.00;;;;;;4916605;29;20937;-68
2022/11/16 13:42:42;;;;;;;4.40;1.53;;;14.60;1.00;;;;;;4915294;29;20502;-65
2022/11/16 13:45:20;;;;;;;5.93;1.50;;;14.80;1.00;;;;;;4916571;29;20179;-66